createdAt,value
2019-04-11T00:01:14.243Z,40.77
2019-04-11T00:03:44.597Z,35.63
2019-04-11T00:06:15.105Z,38.90
2019-04-11T00:08:45.957Z,37.40
2019-04-11T00:11:16.318Z,37.20
2019-04-11T00:13:47.293Z,37.50
2019-04-11T00:16:17.538Z,42.57
2019-04-11T00:18:47.798Z,42.47
2019-04-11T00:21:19.075Z,42.30
2019-04-11T00:23:50.261Z,34.60
2019-04-11T00:26:20.722Z,43.70
2019-04-11T00:28:52.002Z,42.77
2019-04-11T00:31:23.335Z,37.40
2019-04-11T00:33:54.251Z,35.43
2019-04-11T00:36:25.960Z,33.57
2019-04-11T00:38:57.011Z,42.33
2019-04-11T00:41:28.088Z,28.90
2019-04-11T00:43:59.398Z,24.50
2019-04-11T00:46:29.450Z,31.80
2019-04-11T00:48:59.830Z,29.60
2019-04-11T00:51:30.157Z,27.40
2019-04-11T00:54:00.644Z,26.80
2019-04-11T00:56:30.789Z,24.83
2019-04-11T00:59:00.980Z,23.77
2019-04-11T01:01:31.594Z,26.70
2019-04-11T01:04:03.385Z,22.43
2019-04-11T01:06:34.356Z,25.30
2019-04-11T01:09:06.314Z,26.53
2019-04-11T01:11:37.892Z,25.50
2019-04-11T01:14:09.761Z,24.40
2019-04-11T01:16:50.670Z,23.30
2019-04-11T01:19:20.923Z,29.20
2019-04-11T01:21:51.307Z,30.10
2019-04-11T01:24:21.846Z,32.70
2019-04-11T01:26:52.194Z,30.17
2019-04-11T01:29:23.056Z,24.93
2019-04-11T01:31:58.094Z,31.80
2019-04-11T01:34:28.813Z,23.07
2019-04-11T01:36:59.621Z,26.23
2019-04-11T01:39:39.127Z,20.90
2019-04-11T01:42:09.292Z,24.87
2019-04-11T01:44:39.339Z,20.53
2019-04-11T01:47:12.847Z,22.87
2019-04-11T01:49:44.146Z,25.17
2019-04-11T01:52:14.214Z,24.27
2019-04-11T01:54:46.011Z,25.17
2019-04-11T01:57:15.952Z,20.90
2019-04-11T01:59:46.031Z,26.27
2019-04-11T02:02:34.959Z,24.53
2019-04-11T02:05:13.219Z,27.43
2019-04-11T02:07:43.279Z,24.77
2019-04-11T02:10:15.092Z,28.40
2019-04-11T02:12:45.611Z,27.87
2019-04-11T02:15:16.476Z,31.03
2019-04-11T02:17:46.768Z,27.63
2019-04-11T02:20:16.892Z,29.60
2019-04-11T02:22:54.957Z,29.80
2019-04-11T02:25:38.730Z,26.80
2019-04-11T02:28:12.624Z,27.17
2019-04-11T02:30:48.301Z,27.30
2019-04-11T02:33:18.471Z,43.13
2019-04-11T02:35:49.494Z,29.53
2019-04-11T02:38:21.375Z,27.93
2019-04-11T02:40:52.583Z,29.50
2019-04-11T02:43:25.089Z,32.13
2019-04-11T02:46:09.253Z,25.10
2019-04-11T02:48:27.016Z,27.50
2019-04-11T02:51:00.916Z,28.77
2019-04-11T02:53:32.703Z,27.37
2019-04-11T02:56:05.997Z,27.57
2019-04-11T02:58:36.895Z,22.57
2019-04-11T03:01:09.715Z,25.53
2019-04-11T03:03:41.674Z,24.83
2019-04-11T03:06:11.919Z,29.67
2019-04-11T03:08:43.596Z,26.03
2019-04-11T03:11:27.458Z,24.77
2019-04-11T03:13:58.327Z,22.13
2019-04-11T03:16:42.659Z,25.33
2019-04-11T03:19:17.843Z,24.77
2019-04-11T03:21:39.244Z,23.87
2019-04-11T03:24:10.374Z,23.90
2019-04-11T03:26:38.385Z,26.10
2019-04-11T03:29:10.720Z,28.97
2019-04-11T03:39:39.776Z,24.90
2019-04-11T03:42:04.085Z,22.77
2019-04-11T03:44:40.163Z,22.80
2019-04-11T03:47:22.184Z,22.13
2019-04-11T03:49:46.644Z,25.47
2019-04-11T03:52:12.166Z,27.40
2019-04-11T03:54:42.771Z,23.13
2019-04-11T03:57:13.935Z,24.20
2019-04-11T03:59:47.879Z,21.97
2019-04-11T04:02:18.835Z,25.50
2019-04-11T04:04:51.316Z,22.53
2019-04-11T04:07:23.436Z,25.23
2019-04-11T04:09:54.559Z,21.63
2019-04-11T04:12:24.797Z,25.73
2019-04-11T04:15:07.285Z,32.37
2019-04-11T04:17:57.352Z,21.23
2019-04-11T04:20:46.636Z,24.30
2019-04-11T04:23:22.574Z,32.20
2019-04-11T04:25:54.469Z,26.97
2019-04-11T04:28:24.661Z,23.80
2019-04-11T04:30:54.986Z,20.77
2019-04-11T04:33:26.641Z,20.40
2019-04-11T04:35:58.020Z,22.60
2019-04-11T04:38:29.543Z,27.13
2019-04-11T04:41:13.463Z,21.57
2019-04-11T04:43:33.740Z,24.37
2019-04-11T04:46:25.120Z,28.17
2019-04-11T04:48:35.282Z,22.60
2019-04-11T04:51:08.849Z,22.57
2019-04-11T04:53:38.893Z,22.23
2019-04-11T04:56:10.985Z,28.47
2019-04-11T04:58:42.148Z,20.10
2019-04-11T05:01:12.771Z,24.30
2019-04-11T05:03:44.718Z,22.83
2019-04-11T05:06:16.454Z,23.93
2019-04-11T05:08:47.199Z,20.83
2019-04-11T05:11:18.025Z,25.90
2019-04-11T05:13:50.747Z,22.23
2019-04-11T05:16:20.225Z,21.90
2019-04-11T05:18:50.558Z,26.40
2019-04-11T05:21:21.303Z,23.77
2019-04-11T05:23:52.143Z,20.03
2019-04-11T05:26:23.603Z,22.13
2019-04-11T05:28:54.044Z,23.37
2019-04-11T05:31:25.220Z,21.67
2019-04-11T05:33:59.370Z,31.37
2019-04-11T05:36:30.399Z,28.00
2019-04-11T05:39:00.605Z,22.93
2019-04-11T05:41:31.463Z,25.23
2019-04-11T05:44:03.525Z,27.40
2019-04-11T05:46:47.255Z,20.53
2019-04-11T05:49:17.216Z,20.77
2019-04-11T05:52:06.418Z,22.10
2019-04-11T05:54:49.726Z,30.57
2019-04-11T05:57:23.871Z,21.27
2019-04-11T05:59:54.415Z,20.73
2019-04-11T06:02:43.738Z,31.43
2019-04-11T06:05:27.747Z,23.23
2019-04-11T06:07:58.353Z,26.53
2019-04-11T06:10:42.481Z,23.27
2019-04-11T06:13:18.548Z,22.13
2019-04-11T06:15:51.731Z,19.80
2019-04-11T06:18:44.752Z,24.30
2019-04-11T06:21:19.946Z,19.57
2019-04-11T06:24:09.899Z,27.70
2019-04-11T06:26:45.041Z,20.63
2019-04-11T06:29:26.189Z,16.43
2019-04-11T06:32:13.866Z,20.53
2019-04-11T06:34:51.266Z,17.33
2019-04-11T06:37:41.344Z,26.90
2019-04-11T06:40:20.166Z,16.47
2019-04-11T06:42:57.396Z,19.33
2019-04-11T06:45:46.426Z,16.40
2019-04-11T06:48:31.786Z,15.17
2019-04-11T06:51:22.013Z,18.80
2019-04-11T06:54:11.077Z,15.43
2019-04-11T06:56:43.586Z,26.20
2019-04-11T06:59:20.614Z,16.27
2019-04-11T07:01:50.917Z,18.27
2019-04-11T07:04:31.046Z,13.25
2019-04-11T07:07:02.334Z,17.63
2019-04-11T07:09:42.506Z,14.87
2019-04-11T07:12:19.642Z,20.60
2019-04-11T07:14:55.503Z,15.32
2019-04-11T07:17:45.824Z,14.90
2019-04-11T07:20:35.701Z,12.93
2019-04-11T07:23:24.949Z,14.03
2019-04-11T07:26:02.411Z,12.95
2019-04-11T07:28:52.302Z,12.37
2019-04-11T07:31:41.766Z,10.08
2019-04-11T07:34:33.141Z,13.00
2019-04-11T07:37:21.904Z,10.63
2019-04-11T07:40:18.700Z,14.70
2019-04-11T07:42:52.811Z,11.73
2019-04-11T07:45:27.921Z,10.88
2019-04-11T07:48:07.091Z,13.87
2019-04-11T07:50:37.050Z,13.27
2019-04-11T07:53:07.319Z,11.40
2019-04-11T07:55:39.889Z,12.65
2019-04-11T07:58:21.671Z,10.00
2019-04-11T08:01:12.547Z,12.03
2019-04-11T08:04:03.795Z,10.65
2019-04-11T08:06:52.901Z,8.75
2019-04-11T08:09:33.480Z,10.10
2019-04-11T08:12:08.748Z,8.23
2019-04-11T08:14:57.921Z,10.30
2019-04-11T08:17:40.448Z,9.50
2019-04-11T08:20:27.272Z,9.93
2019-04-11T08:23:00.881Z,7.87
2019-04-11T08:25:47.391Z,7.30
2019-04-11T08:28:18.513Z,11.55
2019-04-11T08:30:57.631Z,10.30
2019-04-11T08:33:28.870Z,12.85
2019-04-11T08:36:19.826Z,8.10
2019-04-11T08:38:50.871Z,9.80
2019-04-11T08:41:40.179Z,9.20
2019-04-11T08:44:19.886Z,10.93
2019-04-11T08:46:55.990Z,6.97
2019-04-11T08:49:37.582Z,10.35
2019-04-11T08:52:16.711Z,10.55
2019-04-11T08:55:06.186Z,9.58
2019-04-11T08:57:49.889Z,6.60
2019-04-11T09:00:44.719Z,8.35
2019-04-11T09:06:26.747Z,7.78
2019-04-11T09:09:18.829Z,7.03
2019-04-11T09:11:54.126Z,8.70
2019-04-11T09:14:44.425Z,4.20
2019-04-11T09:17:24.326Z,6.17
2019-04-11T09:20:13.658Z,7.03
2019-04-11T09:22:53.339Z,7.50
2019-04-11T09:25:43.457Z,8.20
2019-04-11T09:28:33.435Z,6.10
2019-04-11T09:31:25.403Z,7.92
2019-04-11T09:34:07.422Z,8.88
2019-04-11T09:36:57.485Z,9.63
2019-04-11T09:39:47.632Z,8.40
2019-04-11T09:42:37.030Z,7.92
2019-04-11T09:45:23.697Z,6.00
2019-04-11T09:48:25.178Z,9.43
2019-04-11T09:51:03.021Z,10.55
2019-04-11T09:53:34.518Z,6.28
2019-04-11T09:56:27.088Z,7.37
2019-04-11T09:59:02.317Z,12.60
2019-04-11T10:02:05.885Z,8.28
2019-04-11T10:04:36.463Z,8.08
2019-04-11T10:07:25.854Z,8.60
2019-04-11T10:10:15.127Z,8.65
2019-04-11T10:13:10.860Z,9.25
2019-04-11T10:15:59.790Z,6.83
2019-04-11T10:19:03.256Z,12.43
2019-04-11T10:21:34.113Z,7.87
2019-04-11T10:24:20.516Z,9.28
2019-04-11T10:26:54.144Z,7.42
2019-04-11T10:29:44.097Z,7.80
2019-04-11T10:32:14.963Z,7.70
2019-04-11T10:35:04.142Z,8.73
2019-04-11T10:37:36.319Z,8.60
2019-04-11T10:40:26.136Z,7.72
2019-04-11T10:42:56.141Z,6.62
2019-04-11T10:45:34.484Z,8.38
2019-04-11T10:48:06.716Z,7.50
2019-04-11T10:50:56.238Z,5.95
2019-04-11T10:53:27.142Z,9.33
2019-04-11T10:56:13.907Z,7.62
2019-04-11T10:58:53.282Z,12.70
2019-04-11T11:01:44.585Z,9.00
2019-04-11T11:04:34.641Z,7.58
2019-04-11T11:07:10.167Z,8.53
2019-04-11T11:09:54.560Z,9.20
2019-04-11T11:12:33.063Z,12.47
2019-04-11T11:15:25.539Z,7.20
2019-04-11T11:18:38.170Z,9.33
2019-04-11T11:20:58.834Z,7.37
2019-04-11T11:23:49.354Z,7.75
2019-04-11T11:26:26.167Z,7.53
2019-04-11T11:29:09.961Z,7.00
2019-04-11T11:31:42.753Z,9.93
2019-04-11T11:34:19.929Z,7.55
2019-04-11T11:37:08.985Z,5.00
2019-04-11T11:40:01.754Z,6.92
2019-04-11T11:42:48.731Z,17.52
2019-04-11T11:45:27.710Z,10.63
2019-04-11T11:48:29.049Z,8.23
2019-04-11T11:51:01.276Z,5.83
2019-04-11T11:53:44.380Z,6.33
2019-04-11T11:56:14.487Z,6.87
2019-04-11T11:59:05.328Z,10.25
2019-04-11T12:01:38.915Z,8.18
2019-04-11T12:04:27.740Z,6.97
2019-04-11T12:07:03.920Z,8.48
2019-04-11T12:09:53.068Z,10.10
2019-04-11T12:12:29.920Z,10.90
2019-04-11T12:15:22.287Z,11.83
2019-04-11T12:18:04.592Z,8.60
2019-04-11T12:20:39.426Z,6.47
2019-04-11T12:23:19.667Z,8.23
2019-04-11T12:25:49.640Z,7.72
2019-04-11T12:28:40.048Z,7.30
2019-04-11T12:31:10.976Z,8.00
2019-04-11T12:34:00.182Z,5.92
2019-04-11T15:32:05.000Z,12.45
2019-04-11T15:34:39.096Z,8.68
2019-04-11T15:37:30.725Z,8.80
2019-04-11T15:40:08.996Z,8.75
2019-04-11T15:42:56.130Z,8.53
2019-04-11T15:45:38.593Z,8.73
2019-04-11T15:48:28.533Z,7.17
2019-04-11T15:51:19.534Z,20.75
2019-04-11T15:54:08.668Z,38.50
2019-04-11T15:56:44.172Z,28.02
2019-04-11T15:59:30.524Z,16.85
2019-04-11T16:02:19.763Z,9.63
2019-04-11T16:05:07.615Z,8.95
2019-04-11T16:08:10.668Z,14.05
2019-04-11T16:10:46.515Z,14.93
2019-04-11T16:13:26.285Z,11.83
2019-04-11T16:16:06.415Z,15.48
2019-04-11T16:18:48.754Z,14.95
2019-04-11T16:21:24.397Z,12.95
2019-04-11T16:24:01.873Z,10.65
2019-04-11T16:26:46.415Z,9.13
2019-04-11T16:29:23.993Z,10.03
2019-04-11T16:31:55.406Z,12.58
2019-04-11T16:34:48.707Z,10.88
2019-04-11T16:37:18.812Z,13.45
2019-04-11T16:40:08.131Z,12.98
2019-04-11T16:42:44.127Z,21.12
2019-04-11T16:45:33.974Z,19.48
2019-04-11T16:48:04.392Z,19.12
2019-04-11T16:50:34.964Z,17.17
2019-04-11T16:53:05.355Z,20.92
2019-04-11T16:55:36.908Z,25.62
2019-04-11T16:58:07.306Z,15.65
2019-04-11T17:00:37.592Z,14.50
2019-04-11T17:03:07.833Z,11.20
2019-04-11T17:05:39.630Z,14.28
2019-04-11T17:08:28.623Z,10.78
2019-04-11T17:11:04.091Z,18.62
2019-04-11T17:13:34.234Z,13.55
2019-04-11T17:16:07.984Z,22.05
2019-04-11T17:18:38.165Z,21.25
2019-04-11T17:21:08.803Z,18.15
2019-04-11T17:23:39.329Z,19.23
2019-04-11T17:26:09.929Z,14.05
2019-04-11T17:28:40.329Z,13.10
2019-04-11T17:31:10.372Z,8.08
2019-04-11T17:33:41.812Z,10.40
2019-04-11T17:36:11.891Z,13.90
2019-04-11T17:38:42.154Z,13.05
2019-04-11T17:41:13.162Z,12.77
2019-04-11T17:44:02.476Z,10.95
2019-04-11T17:46:32.794Z,19.37
2019-04-11T17:49:04.082Z,15.38
2019-04-11T17:51:35.364Z,12.35
2019-04-11T17:54:05.573Z,12.10
2019-04-11T17:56:35.853Z,13.70
2019-04-11T17:59:06.027Z,14.50
2019-04-11T18:01:38.003Z,15.15
2019-04-11T18:04:08.884Z,14.47
2019-04-11T18:06:39.387Z,22.65
2019-04-11T18:09:12.138Z,25.30
2019-04-11T18:11:42.515Z,20.90
2019-04-11T18:14:12.711Z,21.20
2019-04-11T18:16:42.922Z,24.13
2019-04-11T18:19:14.071Z,28.47
2019-04-11T18:21:44.236Z,31.87
2019-04-11T18:24:14.318Z,29.50
2019-04-11T18:26:44.502Z,34.88
2019-04-11T18:29:14.704Z,34.73
2019-04-11T18:31:44.760Z,38.02
2019-04-11T18:34:15.049Z,41.83
2019-04-11T18:36:45.270Z,49.83
2019-04-11T18:39:15.846Z,43.83
2019-04-11T18:41:46.056Z,51.73
2019-04-11T18:44:18.302Z,45.28
2019-04-11T18:46:49.124Z,59.77
2019-04-11T18:49:21.728Z,62.30
2019-04-11T18:51:53.727Z,55.35
2019-04-11T18:54:27.662Z,31.82
2019-04-11T18:56:59.552Z,24.45
2019-04-11T18:59:33.817Z,31.45
2019-04-11T19:02:02.417Z,28.20
2019-04-11T19:04:33.145Z,26.05
2019-04-11T19:07:06.750Z,34.98
2019-04-11T19:09:43.443Z,28.20
2019-04-11T19:12:15.891Z,30.00
2019-04-11T19:14:53.921Z,31.73
2019-04-11T19:17:25.951Z,32.17
2019-04-11T19:19:59.904Z,29.35
2019-04-11T19:22:37.394Z,27.67
2019-04-11T19:25:06.194Z,34.00
2019-04-11T19:27:40.702Z,33.90
2019-04-11T19:30:12.734Z,29.37
2019-04-11T19:32:44.667Z,30.82
2019-04-11T19:35:15.325Z,40.23
2019-04-11T19:37:45.666Z,36.77
2019-04-11T19:40:17.000Z,34.53
2019-04-11T19:42:52.432Z,35.30
2019-04-11T19:45:23.710Z,30.97
2019-04-11T19:48:18.865Z,31.20
2019-04-11T19:50:51.038Z,37.50
2019-04-11T19:53:21.606Z,27.37
2019-04-11T19:56:00.085Z,32.37
2019-04-11T19:58:31.696Z,30.77
2019-04-11T20:01:02.352Z,24.15
2019-04-11T20:03:32.906Z,30.53
2019-04-11T20:06:04.420Z,27.10
2019-04-11T20:08:35.565Z,26.57
2019-04-11T20:11:06.014Z,28.47
2019-04-11T20:13:38.143Z,26.77
2019-04-11T20:16:12.256Z,28.27
2019-04-11T20:18:50.854Z,24.10
2019-04-11T20:21:19.928Z,26.52
2019-04-11T20:23:52.085Z,27.80
2019-04-11T20:26:22.736Z,33.93
2019-04-11T20:28:53.833Z,32.63
2019-04-11T20:31:28.221Z,31.05
2019-04-11T20:34:01.538Z,33.53
2019-04-11T20:36:35.256Z,32.67
2019-04-11T20:39:10.356Z,31.30
2019-04-11T20:41:43.014Z,35.23
2019-04-11T20:44:13.560Z,34.30
2019-04-11T20:46:45.001Z,39.93
2019-04-11T20:49:16.684Z,39.83
2019-04-11T20:51:47.692Z,38.20
2019-04-11T20:54:18.049Z,38.90
2019-04-11T20:56:48.408Z,37.83
2019-04-11T20:59:21.134Z,40.35
2019-04-11T21:01:53.619Z,42.83
2019-04-11T21:04:23.627Z,48.63
2019-04-11T21:06:54.128Z,44.53
2019-04-11T21:09:24.314Z,44.40
2019-04-11T21:11:54.593Z,53.47
2019-04-11T21:14:24.779Z,45.67
2019-04-11T21:16:54.942Z,42.57
2019-04-11T21:19:27.057Z,41.03
2019-04-11T21:21:57.439Z,39.40
2019-04-11T21:24:30.790Z,38.17
2019-04-11T21:27:18.416Z,35.33
2019-04-11T21:29:49.523Z,32.20
2019-04-11T21:32:19.601Z,38.57
2019-04-11T21:34:49.843Z,32.03
2019-04-11T21:37:20.266Z,29.97
2019-04-11T21:39:50.368Z,35.37
2019-04-11T21:42:20.787Z,29.83
2019-04-11T21:44:50.985Z,27.87
2019-04-11T21:47:21.302Z,33.43
2019-04-11T21:49:51.694Z,33.63
2019-04-11T21:52:21.834Z,30.50
2019-04-11T21:54:52.072Z,28.43
2019-04-11T21:57:22.304Z,36.98
2019-04-11T21:59:52.482Z,38.53
2019-04-11T22:02:24.314Z,29.87
2019-04-11T22:04:58.565Z,30.33
2019-04-11T22:07:30.847Z,29.27
2019-04-11T22:09:58.797Z,28.43
2019-04-11T22:12:29.131Z,29.97
2019-04-11T22:14:59.230Z,32.33
2019-04-11T22:17:29.601Z,34.83
2019-04-11T22:19:59.922Z,32.93
2019-04-11T22:22:29.957Z,25.37
2019-04-11T22:25:00.112Z,29.27
2019-04-11T22:27:30.345Z,40.13
2019-04-11T22:30:00.403Z,31.93
2019-04-11T22:32:30.582Z,28.60
2019-04-11T22:35:00.787Z,28.83
2019-04-11T22:37:30.727Z,28.83
2019-04-11T22:40:02.089Z,22.80
2019-04-11T22:42:32.948Z,26.87
2019-04-11T22:45:03.406Z,32.67
2019-04-11T22:47:35.960Z,22.97
2019-04-11T22:50:09.840Z,30.57
2019-04-11T22:52:37.309Z,28.43
2019-04-11T22:55:10.968Z,24.60
2019-04-11T22:57:40.850Z,22.57
2019-04-11T23:00:14.759Z,25.87
2019-04-11T23:02:50.400Z,26.90
2019-04-11T23:05:20.609Z,24.63
2019-04-11T23:07:50.745Z,24.10
2019-04-11T23:10:20.878Z,23.53
2019-04-11T23:12:51.228Z,26.07
2019-04-11T23:15:22.328Z,24.73
2019-04-11T23:17:52.486Z,25.87
2019-04-11T23:20:22.672Z,23.27
2019-04-11T23:22:54.427Z,24.63
2019-04-11T23:25:24.652Z,28.03
2019-04-11T23:27:54.938Z,24.90
2019-04-11T23:30:25.057Z,23.53
2019-04-11T23:32:55.242Z,26.63
2019-04-11T23:35:25.389Z,22.23
2019-04-11T23:37:55.687Z,24.50
2019-04-11T23:40:25.649Z,25.90
2019-04-11T23:42:56.004Z,22.13
2019-04-11T23:45:27.651Z,22.73
2019-04-11T23:47:57.728Z,26.20
2019-04-11T23:50:27.696Z,22.43
2019-04-11T23:52:58.113Z,23.23
2019-04-11T23:55:30.789Z,22.30
2019-04-11T23:58:02.188Z,17.63
